createdAt,value
2018-01-29T08:21:58.610Z,87.30
2018-01-29T08:24:26.157Z,87.10
2018-01-29T08:26:53.659Z,86.50
2018-01-29T08:29:21.182Z,86.20
2018-01-29T08:31:48.857Z,85.70
2018-01-29T08:34:16.367Z,84.90
2018-01-29T08:36:43.927Z,83.10
2018-01-29T08:39:11.643Z,81.40
2018-01-29T08:41:39.933Z,79.70
2018-01-29T08:44:08.201Z,80.50
2018-01-29T08:46:36.642Z,82.00
2018-01-29T08:49:04.241Z,81.90
2018-01-29T08:51:31.758Z,83.00
2018-01-29T08:53:59.284Z,84.50
2018-01-29T08:56:26.966Z,84.10
2018-01-29T08:58:54.474Z,84.20
2018-01-29T09:01:22.745Z,81.40
2018-01-29T09:03:50.356Z,81.40
2018-01-29T09:06:17.856Z,79.90
2018-01-29T09:08:45.349Z,78.90
2018-01-29T09:11:12.887Z,78.60
2018-01-29T09:13:41.164Z,78.10
2018-01-29T09:16:09.442Z,77.30
2018-01-29T09:18:37.721Z,76.20
2018-01-29T09:21:05.992Z,74.90
2018-01-29T09:23:34.302Z,73.20
2018-01-29T09:26:01.808Z,73.10
2018-01-29T09:28:29.418Z,72.30
2018-01-29T09:30:56.948Z,71.90
2018-01-29T09:33:24.479Z,72.50
2018-01-29T09:35:52.283Z,71.10
2018-01-29T09:38:19.854Z,70.90
2018-01-29T09:40:47.313Z,66.80
2018-01-29T09:43:15.014Z,63.10
2018-01-29T09:45:42.558Z,58.80
2018-01-29T09:48:10.103Z,54.40
2018-01-29T09:50:37.698Z,50.90
2018-01-29T09:53:05.215Z,49.60
2018-01-29T09:55:32.758Z,48.10
2018-01-29T09:58:00.268Z,47.70
2018-01-29T10:00:27.767Z,46.70
2018-01-29T10:02:56.035Z,44.70
2018-01-29T10:05:24.303Z,42.50
2018-01-29T10:07:51.845Z,42.50
2018-01-29T10:10:19.331Z,41.70
2018-01-29T10:12:47.740Z,41.10
2018-01-29T10:15:15.246Z,41.10
2018-01-29T10:17:42.912Z,40.70
2018-01-29T10:20:10.415Z,41.40
2018-01-29T10:22:37.937Z,42.40
2018-01-29T10:25:05.465Z,42.10
2018-01-29T10:27:32.985Z,40.90
2018-01-29T10:30:00.486Z,41.30
2018-01-29T10:32:28.111Z,41.30
2018-01-29T10:34:55.706Z,41.10
2018-01-29T10:37:23.190Z,41.10
2018-01-29T10:39:51.456Z,41.40
2018-01-29T10:42:18.954Z,41.40
2018-01-29T10:44:46.609Z,41.60
2018-01-29T10:47:14.116Z,41.10
2018-01-29T10:49:41.753Z,41.90
2018-01-29T10:52:09.422Z,42.10
2018-01-29T10:54:37.443Z,42.30
2018-01-29T10:57:05.790Z,41.30
2018-01-29T10:59:33.318Z,41.20
2018-01-29T11:02:01.356Z,40.30
2018-01-29T11:04:30.096Z,41.90
2018-01-29T11:06:57.614Z,41.90
2018-01-29T11:09:25.121Z,41.50
2018-01-29T11:11:52.680Z,42.20
2018-01-29T11:14:20.154Z,43.00
2018-01-29T11:16:48.862Z,43.50
2018-01-29T11:19:16.352Z,43.50
2018-01-29T11:21:43.870Z,43.80
2018-01-29T11:24:12.141Z,43.90
2018-01-29T11:26:40.447Z,46.80
2018-01-29T11:29:07.917Z,46.70
2018-01-29T11:31:35.555Z,48.00
2018-01-29T11:34:03.402Z,49.30
2018-01-29T11:36:31.702Z,51.00
2018-01-29T11:38:59.186Z,50.90
2018-01-29T11:41:26.850Z,51.60
2018-01-29T11:43:54.374Z,52.30
2018-01-29T11:46:21.870Z,52.60
2018-01-29T11:48:49.426Z,53.20
2018-01-29T11:51:16.971Z,53.30
2018-01-29T11:53:44.460Z,53.90
2018-01-29T11:56:11.944Z,54.50
2018-01-29T11:58:40.227Z,55.40
2018-01-29T12:01:08.044Z,55.40
2018-01-29T12:03:36.130Z,55.90
2018-01-29T12:06:03.658Z,56.60
2018-01-29T12:08:31.150Z,57.10
2018-01-29T12:10:58.685Z,56.40
2018-01-29T12:13:26.192Z,56.40
2018-01-29T12:15:53.744Z,56.90
2018-01-29T12:18:21.308Z,57.60
2018-01-29T12:20:49.557Z,57.40
2018-01-29T12:23:17.399Z,57.40
2018-01-29T12:25:50.722Z,58.00
2018-01-29T12:28:18.324Z,56.80
2018-01-29T12:30:45.862Z,57.40
2018-01-29T12:33:14.125Z,57.40
2018-01-29T12:35:41.638Z,58.00
2018-01-29T12:38:09.166Z,57.10
2018-01-29T12:40:36.702Z,57.80
2018-01-29T12:43:04.484Z,57.80
2018-01-29T12:45:32.011Z,59.30
2018-01-29T12:47:59.504Z,57.90
2018-01-29T12:50:27.797Z,57.60
2018-01-29T12:52:55.326Z,57.60
2018-01-29T12:55:23.614Z,57.70
2018-01-29T12:57:51.871Z,58.50
2018-01-29T13:00:19.400Z,58.40
2018-01-29T13:02:46.941Z,58.80
2018-01-29T13:05:14.555Z,57.70
2018-01-29T13:07:42.864Z,57.90
2018-01-29T13:10:10.390Z,57.80
2018-01-29T13:12:37.931Z,58.10
2018-01-29T13:15:05.444Z,58.00
2018-01-29T13:17:33.016Z,58.40
2018-01-29T13:20:00.520Z,57.90
2018-01-29T13:22:28.067Z,58.10
2018-01-29T13:24:55.554Z,58.30
2018-01-29T13:27:23.081Z,58.20
2018-01-29T13:29:50.609Z,58.90
2018-01-29T13:32:18.196Z,58.50
2018-01-29T13:34:45.690Z,59.10
2018-01-29T13:37:13.189Z,59.70
2018-01-29T13:39:40.708Z,59.10
2018-01-29T13:42:09.004Z,59.80
2018-01-29T13:44:36.494Z,59.60
2018-01-29T13:47:04.006Z,59.00
2018-01-29T13:49:31.532Z,59.10
2018-01-29T13:51:59.038Z,59.10
2018-01-29T13:54:26.552Z,59.00
2018-01-29T13:56:54.868Z,59.50
2018-01-29T13:59:22.397Z,59.40
2018-01-29T14:01:50.452Z,59.40
2018-01-29T14:04:17.997Z,60.00
2018-01-29T14:06:55.304Z,59.60
2018-01-29T14:09:23.100Z,60.30
2018-01-29T14:11:50.617Z,60.30
2018-01-29T14:14:18.109Z,60.50
2018-01-29T14:16:45.612Z,61.10
2018-01-29T14:19:13.118Z,60.50
2018-01-29T14:21:40.630Z,60.40
2018-01-29T14:24:08.137Z,60.70
2018-01-29T14:26:36.402Z,61.10
2018-01-29T14:29:04.236Z,61.00
2018-01-29T14:31:31.713Z,60.90
2018-01-29T14:33:59.227Z,61.40
2018-01-29T14:36:26.769Z,61.80
2018-01-29T14:38:54.421Z,61.30
2018-01-29T14:41:22.080Z,61.40
2018-01-29T14:43:49.573Z,61.80
2018-01-29T14:46:17.098Z,61.00
2018-01-29T14:48:44.588Z,61.40
2018-01-29T14:51:12.334Z,61.80
2018-01-29T14:53:39.843Z,62.10
2018-01-29T14:56:07.340Z,62.40
2018-01-29T14:58:35.012Z,63.10
2018-01-29T15:01:02.533Z,62.70
2018-01-29T15:03:30.051Z,62.50
2018-01-29T15:05:57.684Z,62.20
2018-01-29T15:08:25.196Z,62.10
2018-01-29T15:10:53.418Z,62.70
2018-01-29T15:13:20.942Z,63.40
2018-01-29T15:15:48.447Z,63.20
2018-01-29T15:18:15.952Z,63.80
2018-01-29T15:20:44.966Z,65.40
2018-01-29T15:23:12.695Z,65.30
2018-01-29T15:25:40.246Z,66.10
2018-01-29T15:28:07.845Z,66.50
2018-01-29T15:30:36.344Z,67.20
2018-01-29T15:33:04.202Z,67.10
2018-01-29T15:35:31.879Z,67.20
2018-01-29T15:37:59.442Z,67.60
2018-01-29T15:40:26.932Z,68.20
2018-01-29T15:42:54.970Z,68.50
2018-01-29T15:45:22.509Z,69.20
2018-01-29T15:47:50.823Z,69.80
2018-01-29T15:50:18.307Z,69.80
2018-01-29T15:52:45.825Z,70.20
2018-01-29T15:55:13.351Z,71.60
2018-01-29T15:57:40.839Z,71.90
2018-01-29T16:00:08.357Z,72.00
2018-01-29T16:02:36.077Z,72.50
2018-01-29T16:05:03.729Z,73.00
2018-01-29T16:07:31.250Z,73.50
2018-01-29T16:09:58.851Z,73.90
2018-01-29T16:12:26.422Z,74.60
2018-01-29T16:14:53.959Z,74.90
2018-01-29T16:17:21.446Z,75.60
2018-01-29T16:19:49.299Z,76.00
2018-01-29T16:22:16.789Z,76.40
2018-01-29T16:24:44.798Z,77.40
2018-01-29T16:27:12.357Z,78.40
2018-01-29T16:29:40.240Z,79.10
2018-01-29T16:32:07.804Z,79.60
2018-01-29T16:34:36.466Z,80.00
2018-01-29T16:37:05.152Z,80.40
2018-01-29T16:39:32.771Z,81.00
2018-01-29T16:42:00.400Z,81.30
2018-01-29T16:44:27.960Z,81.50
2018-01-29T16:46:55.480Z,81.60
2018-01-29T16:49:23.797Z,82.80
2018-01-29T16:51:51.318Z,82.80
2018-01-29T16:54:18.977Z,82.70
2018-01-29T16:56:47.387Z,83.10
2018-01-29T16:59:14.919Z,83.00
2018-01-29T17:01:42.466Z,83.70
2018-01-29T17:04:10.004Z,83.80
2018-01-29T17:06:37.513Z,83.70
2018-01-29T17:09:05.083Z,83.60
2018-01-29T17:11:32.585Z,83.70
2018-01-29T17:14:08.852Z,83.90
2018-01-29T17:16:38.243Z,84.10
2018-01-29T17:37:43.831Z,85.60
2018-01-29T17:40:11.425Z,85.80
2018-01-29T17:42:38.936Z,85.80
2018-01-29T17:45:06.509Z,86.10
2018-01-29T17:47:34.017Z,86.30
2018-01-29T17:50:01.537Z,86.70
2018-01-29T17:52:29.237Z,86.80
2018-01-29T17:54:57.069Z,87.50
2018-01-29T17:57:24.767Z,87.50
2018-01-29T17:59:52.298Z,88.00
2018-01-29T18:02:19.803Z,88.40
2018-01-29T18:04:47.628Z,88.30
2018-01-29T18:07:15.316Z,88.30
2018-01-29T18:09:42.859Z,88.90
2018-01-29T18:12:11.180Z,89.00
2018-01-29T18:14:38.674Z,89.10
2018-01-29T18:17:06.180Z,89.10
2018-01-29T18:19:33.660Z,89.00
2018-01-29T18:22:01.174Z,89.10
2018-01-29T18:24:28.674Z,88.60
2018-01-29T18:26:56.193Z,88.80
2018-01-29T18:29:23.725Z,88.50
2018-01-29T18:31:51.223Z,88.20
2018-01-29T18:34:18.790Z,88.10
2018-01-29T18:36:46.403Z,88.00
2018-01-29T18:39:13.922Z,87.80
2018-01-29T18:41:41.458Z,87.80
2018-01-29T18:44:08.993Z,87.60
2018-01-29T18:46:36.492Z,87.60
2018-01-29T18:49:03.990Z,87.60
2018-01-29T18:51:31.519Z,87.70
2018-01-29T18:53:59.241Z,87.50
2018-01-29T18:56:27.179Z,87.30
2018-01-29T18:58:54.698Z,87.10
2018-01-29T19:01:22.430Z,86.80
2018-01-29T19:03:49.945Z,86.40
2018-01-29T19:06:17.451Z,85.90
2018-01-29T19:08:44.953Z,85.50
2018-01-29T19:11:12.555Z,85.40
2018-01-29T19:13:40.426Z,85.40
2018-01-29T19:16:07.973Z,85.50
2018-01-29T19:18:35.495Z,85.50
2018-01-29T19:21:03.081Z,85.20
2018-01-29T19:23:31.767Z,85.00
2018-01-29T19:25:59.444Z,85.00
2018-01-29T19:28:26.938Z,84.90
2018-01-29T19:30:54.477Z,84.90
2018-01-29T19:33:22.143Z,84.90
2018-01-29T19:35:49.727Z,85.10
2018-01-29T19:38:17.240Z,85.20
2018-01-29T19:40:45.810Z,84.90
2018-01-29T19:43:13.356Z,84.90
2018-01-29T19:45:41.160Z,84.60
2018-01-29T19:48:08.688Z,85.00
2018-01-29T19:50:36.220Z,83.90
2018-01-29T19:53:04.059Z,83.90
2018-01-29T19:55:31.565Z,84.30
2018-01-29T19:57:59.253Z,84.20
2018-01-29T20:00:26.787Z,84.20
2018-01-29T20:02:55.114Z,83.40
2018-01-29T20:05:22.876Z,83.30
2018-01-29T20:07:50.426Z,83.40
2018-01-29T20:10:18.689Z,83.60
2018-01-29T20:12:46.253Z,83.10
2018-01-29T20:15:14.268Z,83.00
2018-01-29T20:17:41.775Z,83.10
2018-01-29T20:20:09.372Z,83.10
2018-01-29T20:22:36.872Z,83.00
2018-01-29T20:25:04.397Z,82.80
2018-01-29T20:27:32.137Z,82.10
2018-01-29T20:29:59.700Z,82.10
2018-01-29T20:32:27.201Z,81.70
2018-01-29T20:34:54.721Z,81.60
2018-01-29T20:37:22.237Z,81.30
2018-01-29T20:39:49.801Z,81.10
2018-01-29T20:42:17.347Z,80.80
2018-01-29T20:44:45.635Z,80.70
2018-01-29T20:47:13.163Z,80.60
2018-01-29T20:49:40.666Z,80.50
2018-01-29T20:52:08.192Z,80.40
2018-01-29T20:54:35.900Z,80.50
2018-01-29T20:57:03.447Z,80.50
2018-01-29T20:59:30.943Z,80.60
2018-01-29T21:01:58.723Z,80.50
2018-01-29T21:04:27.849Z,80.90
2018-01-29T21:06:55.510Z,80.80
2018-01-29T21:09:23.182Z,81.00
2018-01-29T21:11:50.683Z,81.30
2018-01-29T21:14:18.310Z,81.70
2018-01-29T21:16:45.839Z,81.70
2018-01-29T21:19:14.223Z,81.70
2018-01-29T21:21:42.507Z,81.80
2018-01-29T21:24:10.025Z,81.80
2018-01-29T21:26:37.512Z,81.80
2018-01-29T21:29:05.826Z,81.80
2018-01-29T21:31:33.370Z,81.80
2018-01-29T21:34:00.892Z,81.90
2018-01-29T21:36:28.407Z,81.70
2018-01-29T21:38:55.931Z,81.50
2018-01-29T21:41:23.442Z,81.60
2018-01-29T21:43:50.970Z,81.40
2018-01-29T21:46:18.485Z,81.50
2018-01-29T21:48:46.203Z,81.60
2018-01-29T21:51:13.710Z,81.70
2018-01-29T21:53:41.326Z,82.00
2018-01-29T21:56:08.874Z,82.10
2018-01-29T21:58:36.361Z,82.20
2018-01-29T22:01:03.880Z,82.50
2018-01-29T22:03:31.361Z,82.40
2018-01-29T22:05:58.935Z,82.50
2018-01-29T22:08:26.467Z,82.80
2018-01-29T22:10:54.693Z,82.90
2018-01-29T22:13:25.914Z,83.20
2018-01-29T22:15:55.631Z,83.10
2018-01-29T22:18:25.421Z,83.50
2018-01-29T22:20:55.109Z,83.20
2018-01-29T22:23:26.697Z,82.30
2018-01-29T22:25:55.300Z,80.70
2018-01-29T22:30:55.120Z,80.40
2018-01-29T22:33:22.661Z,80.40
2018-01-29T22:35:50.151Z,80.20
2018-01-29T22:38:22.622Z,80.40
2018-01-29T22:40:52.662Z,80.70
2018-01-29T22:43:21.022Z,81.20
2018-01-29T22:45:48.539Z,81.20
2018-01-29T22:48:18.701Z,81.30
2018-01-29T22:50:46.188Z,81.10
2018-01-29T22:53:16.053Z,81.10
2018-01-29T22:55:43.585Z,80.70
2018-01-29T22:58:12.004Z,79.80
2018-01-29T23:00:39.495Z,79.60
2018-01-29T23:03:07.058Z,78.90
2018-01-29T23:05:34.563Z,79.00
2018-01-29T23:08:02.092Z,78.90
2018-01-29T23:10:29.604Z,78.80
2018-01-29T23:12:57.096Z,78.70
2018-01-29T23:15:24.617Z,78.40
2018-01-29T23:17:52.107Z,78.40
2018-01-29T23:20:19.633Z,77.90
2018-01-29T23:22:47.253Z,77.50
2018-01-29T23:25:14.753Z,77.10
2018-01-29T23:27:42.259Z,76.80
2018-01-29T23:30:10.522Z,76.60
2018-01-29T23:32:38.067Z,76.60
2018-01-29T23:35:05.600Z,76.60
2018-01-29T23:37:33.102Z,75.50
2018-01-29T23:40:00.585Z,75.50
2018-01-29T23:42:28.082Z,75.30
2018-01-29T23:44:55.575Z,75.10
2018-01-29T23:47:23.083Z,75.10
2018-01-29T23:49:50.710Z,75.10
2018-01-29T23:52:18.974Z,74.60
2018-01-29T23:54:47.217Z,74.90
2018-01-29T23:57:14.726Z,74.90
2018-01-29T23:59:42.212Z,74.70
